Time;durP1;ratioP1;P1;durP2;ratioP2;P2;SDS_P1;SDS_P2;PMS_P1;PMS_P2;Temp;Humidity;BMP_temperature;BMP_pressure;BME280_temperature;BME280_humidity;BME280_pressure;Samples;Min_cycle;Max_cycle;Signal;HPM_P1;HPM_P2
2022/05/12 06:01:08;;;;;;;2.75;1.50;;;20.00;90.60;;;;;;5581579;23;20098;-79
2022/05/12 06:03:33;;;;;;;3.25;1.13;;;19.90;91.00;;;;;;4917491;29;20488;-79
2022/05/12 06:05:59;;;;;;;4.03;1.55;;;19.90;91.10;;;;;;4916595;29;20025;-80
2022/05/12 06:08:24;;;;;;;2.50;1.15;;;19.80;91.40;;;;;;4915304;29;20392;-79
2022/05/12 06:10:50;;;;;;;3.67;1.15;;;19.80;91.60;;;;;;4916773;29;20092;-78
2022/05/12 06:13:16;;;;;;;4.30;1.15;;;19.80;91.90;;;;;;4915552;29;20032;-80
2022/05/12 06:15:43;;;;;;;2.00;1.63;;;20.20;91.80;;;;;;4915412;29;20036;-76
2022/05/12 06:18:14;;;;;;;1.95;1.15;;;20.20;91.50;;;;;;4916918;29;20036;-76
2022/05/12 06:20:41;;;;;;;;;;;20.20;91.50;;;;;;4917302;29;20044;-77
2022/05/12 06:23:10;;;;;;;2.55;1.35;;;20.00;91.80;;;;;;4916855;29;20382;-78
2022/05/12 06:25:36;;;;;;;2.25;1.20;;;20.20;91.60;;;;;;4916668;29;20041;-77
2022/05/12 06:28:02;;;;;;;1.77;1.25;;;20.30;91.50;;;;;;4918143;29;20493;-78
2022/05/12 06:30:29;;;;;;;1.77;1.17;;;20.50;91.70;;;;;;4916433;29;20051;-78
2022/05/12 06:32:56;;;;;;;1.67;1.13;;;20.60;91.20;;;;;;4916395;29;20020;-78
2022/05/12 06:35:23;;;;;;;3.35;1.08;;;20.70;91.20;;;;;;4915775;29;20032;-76
2022/05/12 06:37:49;;;;;;;3.72;1.25;;;21.00;90.70;;;;;;4918441;29;20500;-79
2022/05/12 06:40:16;;;;;;;4.57;1.00;;;21.00;91.10;;;;;;4920089;29;20040;-78
2022/05/12 06:42:42;;;;;;;2.80;1.10;;;21.30;90.80;;;;;;4917798;29;20437;-77
2022/05/12 06:45:15;;;;;;;1.85;0.90;;;20.90;91.00;;;;;;4924469;29;20079;-78
2022/05/12 06:47:52;;;;;;;1.52;1.25;;;20.80;91.50;;;;;;4922985;29;20020;-77
2022/05/12 06:50:22;;;;;;;1.23;1.00;;;20.50;91.70;;;;;;4919635;29;20039;-76
2022/05/12 06:52:48;;;;;;;1.90;1.20;;;20.60;92.00;;;;;;4919318;29;20066;-79
2022/05/12 06:55:14;;;;;;;2.63;1.00;;;20.60;92.00;;;;;;4918943;29;20107;-77
2022/05/12 06:57:40;;;;;;;2.92;1.27;;;20.50;91.90;;;;;;4921176;29;20143;-78
2022/05/12 07:00:08;;;;;;;1.73;1.35;;;20.40;92.20;;;;;;4920369;29;20500;-78
2022/05/12 07:02:35;;;;;;;1.65;0.93;;;20.30;92.50;;;;;;4922153;29;20025;-77
2022/05/12 07:05:01;;;;;;;0.82;0.82;;;20.50;92.60;;;;;;4921940;29;20040;-77
2022/05/12 07:07:27;;;;;;;6.30;1.10;;;20.60;92.40;;;;;;4918129;29;20365;-77
2022/05/12 07:09:54;;;;;;;4.55;1.20;;;20.50;92.30;;;;;;4919587;29;20447;-78
2022/05/12 07:12:21;;;;;;;6.50;0.90;;;20.70;92.50;;;;;;4918905;29;20083;-78
2022/05/12 07:14:46;;;;;;;2.13;1.95;;;20.60;92.40;;;;;;4919497;29;20039;-77
2022/05/12 07:17:12;;;;;;;1.52;1.00;;;20.60;92.50;;;;;;4918431;29;20451;-78
2022/05/12 07:19:37;;;;;;;1.75;1.40;;;20.50;92.80;;;;;;4919600;29;20036;-78
2022/05/12 07:27:31;;;;;;;1.17;0.80;;;20.40;92.90;;;;;;4918595;29;20076;-77
2022/05/12 07:29:57;;;;;;;1.73;0.80;;;20.40;93.30;;;;;;4917420;29;20066;-77
2022/05/12 07:32:23;;;;;;;6.57;1.90;;;20.30;93.20;;;;;;4918612;29;20036;-76
2022/05/12 07:34:49;;;;;;;4.43;1.10;;;20.10;93.70;;;;;;4918268;29;20534;-76
2022/05/12 07:37:15;;;;;;;6.97;2.15;;;20.10;94.00;;;;;;4917133;29;20032;-77
2022/05/12 07:39:41;;;;;;;1.65;1.15;;;20.10;94.10;;;;;;4918108;29;20082;-77
2022/05/12 07:42:07;;;;;;;3.90;1.10;;;20.10;93.90;;;;;;4918544;29;20036;-78
2022/05/12 07:44:32;;;;;;;3.22;1.13;;;20.10;94.10;;;;;;4918407;29;20032;-77
2022/05/12 07:47:09;;;;;;;1.58;1.40;;;20.00;94.40;;;;;;4917365;29;20035;-78
2022/05/12 07:49:36;;;;;;;3.00;1.15;;;20.20;94.40;;;;;;4918220;29;20511;-77
2022/05/12 07:52:04;;;;;;;1.67;1.10;;;20.20;94.40;;;;;;4917431;29;20035;-77
2022/05/12 07:54:30;;;;;;;1.40;1.08;;;20.30;94.40;;;;;;4917231;29;20047;-77
2022/05/12 07:56:57;;;;;;;2.17;1.40;;;20.30;94.20;;;;;;4918292;29;20480;-77
2022/05/12 07:59:23;;;;;;;2.47;1.00;;;20.40;94.10;;;;;;4919797;29;20039;-77
2022/05/12 08:01:48;;;;;;;2.63;1.02;;;20.50;94.10;;;;;;4920153;29;20051;-77
2022/05/12 08:04:14;;;;;;;2.08;1.00;;;20.60;93.90;;;;;;4918975;29;20031;-77
2022/05/12 08:06:41;;;;;;;4.10;1.45;;;20.60;94.10;;;;;;4916274;29;20032;-77
2022/05/12 08:09:07;;;;;;;2.28;1.23;;;20.80;94.00;;;;;;4916425;29;20507;-79
2022/05/12 08:11:32;;;;;;;4.60;1.05;;;20.80;94.00;;;;;;4917732;29;20036;-78
2022/05/12 08:13:58;;;;;;;3.53;1.10;;;21.20;93.70;;;;;;4916718;29;20369;-77
2022/05/12 08:16:24;;;;;;;5.95;1.08;;;21.70;93.30;;;;;;4916312;29;20047;-78
2022/05/12 08:18:50;;;;;;;1.75;1.10;;;21.90;92.60;;;;;;4917665;29;20039;-78
2022/05/12 08:21:17;;;;;;;1.77;1.20;;;21.90;92.80;;;;;;4917961;29;20067;-77
2022/05/12 08:23:43;;;;;;;2.97;1.10;;;22.00;92.40;;;;;;4916788;29;20051;-77
2022/05/12 08:26:09;;;;;;;1.38;1.27;;;21.90;92.60;;;;;;4916284;29;20024;-77
2022/05/12 08:28:37;;;;;;;6.70;1.20;;;22.10;92.50;;;;;;4917530;29;20069;-79
2022/05/12 08:31:04;;;;;;;1.00;0.90;;;22.00;92.10;;;;;;4917946;29;20035;-78
2022/05/12 08:33:29;;;;;;;3.53;1.33;;;21.90;92.60;;;;;;4916354;29;20024;-79
2022/05/12 08:35:55;;;;;;;1.00;0.90;;;21.70;92.40;;;;;;4915560;29;20032;-77
2022/05/12 08:38:21;;;;;;;2.85;0.90;;;22.10;93.00;;;;;;4917198;29;20484;-76
2022/05/12 08:41:03;;;;;;;2.05;1.17;;;22.30;92.10;;;;;;4917229;29;20080;-79
2022/05/12 08:43:31;;;;;;;1.50;0.90;;;22.40;92.30;;;;;;4915638;29;20038;-79
2022/05/12 08:46:15;;;;;;;3.53;0.93;;;22.90;91.70;;;;;;4915995;29;20091;-77
2022/05/12 08:48:43;;;;;;;1.23;1.13;;;23.00;92.10;;;;;;4917405;29;20051;-78
2022/05/12 08:51:17;;;;;;;1.02;0.85;;;23.00;91.50;;;;;;4917361;29;20036;-78
2022/05/12 08:54:03;;;;;;;2.17;1.00;;;23.20;91.30;;;;;;4917861;29;20126;-78
2022/05/12 08:56:29;;;;;;;3.15;1.30;;;23.00;91.80;;;;;;4916607;29;20051;-76
2022/05/12 08:58:57;;;;;;;3.20;1.90;;;23.00;91.20;;;;;;4916820;29;20130;-78
2022/05/12 09:01:50;;;;;;;3.15;1.40;;;23.00;91.20;;;;;;4917026;29;20079;-78
2022/05/12 09:04:28;;;;;;;3.95;1.80;;;23.30;91.40;;;;;;4917516;29;20028;-77
2022/05/12 09:06:59;;;;;;;2.25;1.27;;;23.00;91.00;;;;;;4915153;29;20024;-77
2022/05/12 09:09:32;;;;;;;4.85;1.30;;;22.90;91.20;;;;;;4915742;29;20051;-77
2022/05/12 09:12:15;;;;;;;4.10;1.80;;;22.90;91.80;;;;;;4914882;29;20515;-78
2022/05/12 09:14:44;;;;;;;1.30;1.20;;;23.40;91.10;;;;;;4915067;29;20068;-77
2022/05/12 09:17:22;;;;;;;1.48;1.38;;;23.60;91.20;;;;;;4915186;29;20122;-78
2022/05/12 09:19:47;;;;;;;2.65;1.65;;;23.80;90.60;;;;;;4915418;29;20130;-76
2022/05/12 09:22:13;;;;;;;2.65;1.42;;;23.70;90.60;;;;;;4917112;29;20074;-78
2022/05/12 09:24:39;;;;;;;6.85;1.80;;;23.90;90.20;;;;;;4916569;29;20032;-77
2022/05/12 09:27:13;;;;;;;2.78;1.30;;;23.90;90.60;;;;;;4916513;29;20063;-79
2022/05/12 09:29:49;;;;;;;2.05;1.55;;;23.90;89.80;;;;;;4915461;29;20492;-78
2022/05/12 09:32:23;;;;;;;3.10;1.73;;;24.00;90.10;;;;;;4916584;29;20115;-77
2022/05/12 09:35:06;;;;;;;4.45;2.00;;;24.40;88.20;;;;;;4916706;29;20052;-78
2022/05/12 09:37:32;;;;;;;1.90;1.77;;;24.40;88.40;;;;;;4916096;29;20035;-77
2022/05/12 09:40:18;;;;;;;5.78;1.50;;;24.70;88.80;;;;;;4916485;29;20463;-77
2022/05/12 09:42:47;;;;;;;3.25;1.33;;;25.00;88.10;;;;;;4914897;29;20624;-78
2022/05/12 09:45:16;;;;;;;2.83;1.40;;;24.90;87.60;;;;;;4917059;29;20095;-77
2022/05/12 09:47:42;;;;;;;2.45;1.48;;;24.00;88.00;;;;;;4916343;29;20024;-77
2022/05/12 09:50:23;;;;;;;5.63;1.67;;;23.60;90.00;;;;;;4916467;29;20535;-76
2022/05/12 09:52:55;;;;;;;1.55;1.35;;;23.90;89.30;;;;;;4916262;29;20447;-76
2022/05/12 09:55:27;;;;;;;2.28;1.38;;;23.80;89.70;;;;;;4914504;29;20112;-77
2022/05/12 09:57:56;;;;;;;6.60;1.80;;;23.70;89.30;;;;;;4916700;29;20119;-77
2022/05/12 10:00:35;;;;;;;3.03;1.60;;;23.70;90.20;;;;;;4915636;29;20040;-78
2022/05/12 10:09:17;;;;;;;1.98;1.40;;;23.00;90.80;;;;;;4916516;29;20543;-79
2022/05/12 10:12:01;;;;;;;3.83;1.77;;;23.40;90.60;;;;;;4914592;29;20033;-76
2022/05/12 10:14:49;;;;;;;3.17;1.33;;;23.30;90.40;;;;;;4916233;29;20032;-77
2022/05/12 10:17:37;;;;;;;2.47;1.63;;;23.40;90.40;;;;;;4915810;29;20070;-77
2022/05/12 10:20:10;;;;;;;3.63;1.67;;;23.40;90.30;;;;;;4918282;29;20432;-78
2022/05/12 10:22:54;;;;;;;3.55;1.75;;;23.40;90.20;;;;;;4920343;29;20028;-77
2022/05/12 10:25:47;;;;;;;1.73;1.35;;;23.70;90.10;;;;;;4919829;29;20119;-76
2022/05/12 10:28:52;;;;;;;8.10;2.13;;;24.10;89.40;;;;;;4919861;29;20500;-77
2022/05/12 10:31:26;;;;;;;3.15;2.10;;;24.20;88.50;;;;;;4919990;29;20052;-76
2022/05/12 10:33:59;;;;;;;3.53;1.40;;;24.30;89.10;;;;;;4921235;29;20038;-77
2022/05/12 10:36:52;;;;;;;2.28;1.80;;;24.70;88.90;;;;;;4923962;29;20552;-78
2022/05/12 10:39:39;;;;;;;2.28;2.13;;;25.00;87.60;;;;;;4920758;29;20064;-76
2022/05/12 10:42:22;;;;;;;2.30;2.00;;;24.60;86.70;;;;;;4918085;29;20075;-76
2022/05/12 10:45:07;;;;;;;2.92;1.70;;;24.40;87.40;;;;;;4918913;29;20047;-78
2022/05/12 10:47:51;;;;;;;1.80;1.70;;;24.40;87.80;;;;;;4918239;29;20036;-77
2022/05/12 10:50:35;;;;;;;3.13;1.90;;;24.40;88.20;;;;;;4920111;29;20098;-77
2022/05/12 10:53:22;;;;;;;2.95;1.65;;;24.60;88.00;;;;;;4920600;29;20563;-77
2022/05/12 10:56:14;;;;;;;3.42;2.35;;;24.90;86.90;;;;;;4919067;29;20039;-77
2022/05/12 10:59:00;;;;;;;1.95;1.60;;;25.00;86.70;;;;;;4922345;29;20044;-75
2022/05/12 11:01:33;;;;;;;1.95;1.83;;;24.60;86.80;;;;;;4921852;29;20088;-81
2022/05/12 11:04:16;;;;;;;2.67;1.70;;;24.50;86.60;;;;;;4920737;29;20028;-78
2022/05/12 11:06:54;;;;;;;2.60;1.95;;;24.40;87.40;;;;;;4919119;29;20039;-80
2022/05/12 11:09:39;;;;;;;1.85;1.73;;;24.70;86.50;;;;;;4918727;29;20036;-77
2022/05/12 11:12:23;;;;;;;3.78;1.80;;;24.80;87.10;;;;;;4917969;29;20105;-77
2022/05/12 11:14:55;;;;;;;4.15;2.03;;;24.50;87.20;;;;;;4918814;29;20024;-77
2022/05/12 11:17:32;;;;;;;4.15;1.92;;;24.60;87.00;;;;;;4918261;29;20032;-77
2022/05/12 11:20:18;;;;;;;2.83;2.08;;;24.60;87.10;;;;;;4924680;29;20036;-78
2022/05/12 11:23:23;;;;;;;2.85;2.30;;;24.70;85.70;;;;;;4919889;29;20042;-78
2022/05/12 11:26:04;;;;;;;3.08;1.77;;;24.40;86.60;;;;;;4918958;29;20466;-79
2022/05/12 11:31:32;;;;;;;3.05;1.73;;;24.70;86.40;;;;;;4918479;29;20047;-79
2022/05/12 11:34:05;;;;;;;2.33;2.05;;;24.80;84.90;;;;;;4919182;29;20115;-80
2022/05/12 11:36:43;;;;;;;2.58;2.35;;;24.70;85.50;;;;;;4918898;29;20059;-79
2022/05/12 11:39:37;;;;;;;2.80;2.15;;;24.80;85.30;;;;;;4918901;29;20048;-80
2022/05/12 11:42:13;;;;;;;5.32;3.15;;;24.90;85.60;;;;;;4918858;29;20111;-78
2022/05/12 11:44:59;;;;;;;2.45;1.80;;;25.10;85.10;;;;;;4918805;29;20087;-80
2022/05/12 11:48:09;;;;;;;2.50;1.90;;;25.90;84.30;;;;;;4920202;29;20080;-78
2022/05/12 11:50:44;;;;;;;4.20;2.20;;;25.90;82.60;;;;;;4894960;29;20079;-77
2022/05/12 11:53:24;;;;;;;3.90;1.63;;;25.50;83.60;;;;;;4916967;29;20028;-77
2022/05/12 11:56:11;;;;;;;2.83;1.95;;;25.40;84.40;;;;;;4916594;29;20458;-77
2022/05/12 11:58:40;;;;;;;3.30;2.13;;;25.20;85.60;;;;;;4917604;29;20092;-77
2022/05/12 12:01:33;;;;;;;1.95;1.77;;;25.30;84.50;;;;;;4916727;29;20603;-78
2022/05/12 12:04:03;;;;;;;4.55;2.00;;;25.80;84.40;;;;;;4917927;29;20040;-78
2022/05/12 12:06:48;;;;;;;1.83;1.63;;;25.90;83.00;;;;;;4918757;29;20059;-78
2022/05/12 12:09:48;;;;;;;3.75;1.70;;;26.00;83.40;;;;;;4917862;29;20547;-77
2022/05/12 12:12:40;;;;;;;2.17;2.00;;;25.60;83.00;;;;;;4917622;29;20035;-77
2022/05/12 12:15:10;;;;;;;2.97;1.80;;;25.10;83.70;;;;;;4909607;29;20055;-82
2022/05/12 12:17:38;;;;;;;3.50;2.20;;;25.80;83.60;;;;;;4917645;29;20381;-79
2022/05/12 12:20:08;;;;;;;1.83;1.42;;;25.70;84.00;;;;;;4916972;29;20039;-80
2022/05/12 12:22:52;;;;;;;2.63;1.67;;;25.70;83.00;;;;;;4917714;29;20036;-80
2022/05/12 12:25:35;;;;;;;2.65;1.67;;;26.20;83.40;;;;;;4918279;29;20565;-78
2022/05/12 12:28:10;;;;;;;4.35;1.50;;;25.70;83.80;;;;;;4916893;29;20043;-80
2022/05/12 12:30:58;;;;;;;2.15;1.38;;;25.20;85.30;;;;;;4917207;29;20058;-82
2022/05/12 12:33:29;;;;;;;1.83;1.50;;;25.50;85.60;;;;;;4918683;29;20028;-80
2022/05/12 12:36:12;;;;;;;2.67;1.95;;;25.90;85.30;;;;;;4918437;29;20025;-79
2022/05/12 12:38:44;;;;;;;3.67;2.00;;;26.20;84.70;;;;;;4918504;29;20035;-80
2022/05/12 12:41:29;;;;;;;4.00;1.85;;;25.90;83.80;;;;;;4918126;29;20032;-81
2022/05/12 12:43:59;;;;;;;5.57;1.90;;;25.50;84.60;;;;;;4917067;29;20032;-80
2022/05/12 12:46:48;;;;;;;3.38;1.50;;;25.20;84.60;;;;;;4921584;29;20060;-80
2022/05/12 12:49:24;;;;;;;3.15;1.95;;;25.20;85.30;;;;;;4926123;29;20040;-78
2022/05/12 12:52:04;;;;;;;2.58;2.17;;;25.40;84.70;;;;;;4920267;29;20024;-80
2022/05/12 12:57:19;;;;;;;5.38;1.92;;;25.00;85.20;;;;;;4918446;29;20064;-81
2022/05/12 13:00:07;;;;;;;4.75;2.03;;;24.90;85.60;;;;;;4917007;29;20036;-80
2022/05/12 13:02:40;;;;;;;3.30;1.92;;;25.10;86.20;;;;;;4916965;29;20125;-82
2022/05/12 13:05:27;;;;;;;2.63;1.77;;;25.40;85.40;;;;;;4920233;29;20031;-79
2022/05/12 13:08:22;;;;;;;4.07;1.60;;;25.50;85.10;;;;;;4919941;29;20020;-79
2022/05/12 13:10:49;;;;;;;4.90;2.00;;;25.30;85.80;;;;;;4916519;29;20106;-80
2022/05/12 13:13:16;;;;;;;7.60;2.25;;;25.80;85.30;;;;;;4918079;29;20504;-79
2022/05/12 13:15:45;;;;;;;3.30;1.70;;;25.70;85.70;;;;;;4916537;29;20032;-80
2022/05/12 13:18:19;;;;;;;3.80;2.20;;;25.40;86.30;;;;;;4918212;29;20083;-80
2022/05/12 13:20:45;;;;;;;1.95;1.70;;;25.30;85.50;;;;;;4916579;29;20047;-79
2022/05/12 13:23:24;;;;;;;3.20;1.85;;;25.40;85.90;;;;;;4917105;29;20028;-80
2022/05/12 13:25:50;;;;;;;4.38;2.05;;;25.10;86.20;;;;;;4917781;29;20073;-79
2022/05/12 13:28:23;;;;;;;3.85;1.60;;;25.10;86.70;;;;;;4919131;29;20543;-79
2022/05/12 13:30:52;;;;;;;2.97;1.52;;;25.00;86.70;;;;;;4916583;29;20028;-80
2022/05/12 13:33:27;;;;;;;4.78;1.80;;;24.70;86.60;;;;;;4917096;29;20028;-79
2022/05/12 13:35:57;;;;;;;1.75;1.48;;;25.00;87.20;;;;;;4915750;29;20103;-79
2022/05/12 13:38:31;;;;;;;3.78;1.70;;;25.60;86.20;;;;;;4915679;29;20036;-79
2022/05/12 13:41:01;;;;;;;2.88;1.40;;;25.40;85.60;;;;;;4917900;29;20115;-79
2022/05/12 13:43:39;;;;;;;1.75;1.35;;;25.30;86.40;;;;;;4916714;29;20028;-80
2022/05/12 13:46:16;;;;;;;2.05;1.60;;;25.30;86.80;;;;;;4916513;29;20119;-78
2022/05/12 13:48:56;;;;;;;4.93;1.70;;;25.40;86.40;;;;;;4916832;29;20091;-80
2022/05/12 13:51:42;;;;;;;4.68;1.70;;;24.90;87.40;;;;;;4916183;29;20039;-78
2022/05/12 13:54:09;;;;;;;3.10;1.67;;;24.80;87.90;;;;;;4920520;29;20036;-79
2022/05/12 13:56:38;;;;;;;3.53;2.10;;;24.70;88.00;;;;;;4924136;29;20036;-81
2022/05/12 13:59:15;;;;;;;3.17;2.55;;;24.70;88.00;;;;;;4921298;29;20036;-79
2022/05/12 14:01:40;;;;;;;3.88;1.67;;;24.70;87.80;;;;;;4922629;29;20112;-79
2022/05/12 14:04:20;;;;;;;3.33;1.83;;;24.70;88.00;;;;;;4920249;29;20429;-79
2022/05/12 14:06:57;;;;;;;3.47;1.95;;;24.70;88.00;;;;;;4922070;29;20043;-80
2022/05/12 14:09:24;;;;;;;7.43;2.13;;;24.70;88.50;;;;;;4922642;29;20038;-80
2022/05/12 14:12:05;;;;;;;9.60;1.98;;;24.70;88.40;;;;;;4919876;29;20055;-80
2022/05/12 14:20:19;;;;;;;2.88;1.63;;;25.00;87.90;;;;;;4922363;29;20051;-80
2022/05/12 14:22:44;;;;;;;3.88;1.80;;;25.00;88.00;;;;;;4921977;29;20428;-80
2022/05/12 14:25:11;;;;;;;3.67;2.20;;;24.90;87.60;;;;;;4923717;29;20044;-79
2022/05/12 14:27:37;;;;;;;3.45;1.60;;;24.70;87.80;;;;;;4920653;29;20032;-79
2022/05/12 14:30:03;;;;;;;9.10;1.85;;;24.70;88.40;;;;;;4920554;29;20031;-79
2022/05/12 14:32:40;;;;;;;2.85;1.70;;;24.60;88.20;;;;;;4918970;29;20032;-79
2022/05/12 14:35:06;;;;;;;3.05;1.83;;;24.60;88.50;;;;;;4920816;29;20028;-78
2022/05/12 14:37:33;;;;;;;4.60;1.80;;;24.70;88.80;;;;;;4919664;29;20032;-81
2022/05/12 14:39:59;;;;;;;4.32;1.70;;;25.00;88.50;;;;;;4920539;29;20481;-81
2022/05/12 14:42:25;;;;;;;3.28;1.80;;;25.10;88.30;;;;;;4920927;29;20084;-80
2022/05/12 14:44:51;;;;;;;4.30;2.03;;;25.30;87.60;;;;;;4919008;29;20099;-80
2022/05/12 14:47:27;;;;;;;5.93;2.22;;;25.00;87.90;;;;;;4919060;29;20032;-79
2022/05/12 14:49:53;;;;;;;4.78;2.20;;;24.60;88.50;;;;;;4920626;29;20107;-79
2022/05/12 14:52:22;;;;;;;2.95;1.77;;;24.60;89.00;;;;;;4921368;29;20496;-79
2022/05/12 14:54:49;;;;;;;6.93;2.05;;;24.50;89.10;;;;;;4920467;29;20039;-80
2022/05/12 14:57:15;;;;;;;4.85;1.98;;;24.60;89.20;;;;;;4921100;29;20500;-82
2022/05/12 14:59:41;;;;;;;12.77;2.53;;;24.50;89.30;;;;;;4919017;29;20087;-81
2022/05/12 15:02:16;;;;;;;2.53;2.20;;;24.40;90.00;;;;;;4921151;29;20036;-79
2022/05/12 15:04:43;;;;;;;7.43;1.88;;;24.40;89.90;;;;;;4918433;29;20488;-79
2022/05/12 15:07:12;;;;;;;3.38;1.70;;;24.20;90.00;;;;;;4920231;29;20032;-81
2022/05/12 15:09:39;;;;;;;4.00;1.60;;;24.30;90.00;;;;;;4919255;29;20111;-80
2022/05/12 15:12:05;;;;;;;4.75;2.80;;;24.60;89.70;;;;;;4921969;29;20125;-79
2022/05/12 15:14:31;;;;;;;5.18;1.98;;;24.70;89.80;;;;;;4919842;29;20468;-78
2022/05/12 15:16:57;;;;;;;4.07;1.90;;;24.60;90.10;;;;;;4920155;29;20031;-80
2022/05/12 15:19:25;;;;;;;5.63;2.35;;;24.30;90.30;;;;;;4918330;29;20040;-78
2022/05/12 15:21:51;;;;;;;3.40;1.95;;;24.20;90.30;;;;;;4920031;29;20051;-79
2022/05/12 15:24:16;;;;;;;3.13;2.10;;;24.20;90.40;;;;;;4919554;29;20480;-78
2022/05/12 15:26:42;;;;;;;6.20;2.00;;;24.10;90.50;;;;;;4919678;29;20035;-78
2022/05/12 15:29:10;;;;;;;5.35;2.17;;;24.10;90.60;;;;;;4920626;29;20039;-78
2022/05/12 15:31:36;;;;;;;3.22;2.10;;;23.80;90.70;;;;;;4929794;29;20088;-80
2022/05/12 15:34:02;;;;;;;2.00;1.67;;;23.70;90.80;;;;;;4935532;29;20028;-80
2022/05/12 15:36:39;;;;;;;4.10;2.95;;;23.70;91.00;;;;;;4921238;29;20523;-79
2022/05/12 15:39:06;;;;;;;3.42;2.10;;;23.60;91.10;;;;;;4917676;29;20061;-80
2022/05/12 15:41:32;;;;;;;6.43;2.03;;;23.50;91.30;;;;;;4918570;29;20107;-78
2022/05/12 15:43:58;;;;;;;2.83;2.03;;;23.50;91.50;;;;;;4919147;29;20511;-78
2022/05/12 15:46:26;;;;;;;2.88;2.25;;;23.50;91.40;;;;;;4918797;29;20120;-79
2022/05/12 15:48:54;;;;;;;4.00;2.25;;;23.40;91.50;;;;;;4917979;29;20024;-80
2022/05/12 15:51:20;;;;;;;3.55;1.90;;;23.40;91.60;;;;;;4919589;29;20025;-79
2022/05/12 15:53:46;;;;;;;4.47;2.20;;;23.30;91.70;;;;;;4919805;29;20051;-80
2022/05/12 15:56:12;;;;;;;5.10;2.00;;;23.20;92.20;;;;;;4918370;29;20041;-78
2022/05/12 15:58:37;;;;;;;6.93;2.35;;;23.10;92.20;;;;;;4919488;29;20024;-79
2022/05/12 16:01:03;;;;;;;2.47;1.95;;;23.00;92.70;;;;;;4918221;29;20040;-79
2022/05/12 16:03:29;;;;;;;3.63;2.38;;;22.90;93.00;;;;;;4918094;29;20028;-81
2022/05/12 16:05:54;;;;;;;3.75;2.50;;;22.70;93.30;;;;;;4919171;29;20032;-80
2022/05/12 16:08:20;;;;;;;3.42;2.58;;;22.70;93.40;;;;;;4918196;29;20028;-79
2022/05/12 16:10:51;;;;;;;3.10;2.42;;;22.60;93.50;;;;;;4917661;29;20039;-80
2022/05/12 16:13:22;;;;;;;4.93;2.38;;;22.60;93.80;;;;;;4918948;29;20051;-78
2022/05/12 16:15:48;;;;;;;2.95;2.33;;;22.40;94.10;;;;;;4917460;29;20135;-81
2022/05/12 16:18:13;;;;;;;5.28;2.55;;;22.40;94.40;;;;;;4917700;29;20496;-81
2022/05/12 16:20:39;;;;;;;2.92;2.70;;;22.30;94.70;;;;;;4919217;29;20047;-79
2022/05/12 16:23:04;;;;;;;3.65;2.80;;;22.20;94.90;;;;;;4918526;29;20052;-80
2022/05/12 16:25:34;;;;;;;3.70;2.85;;;22.10;95.20;;;;;;4916210;29;20040;-81
2022/05/12 16:28:05;;;;;;;3.42;2.17;;;21.90;95.60;;;;;;4917298;29;20027;-80
2022/05/12 16:30:33;;;;;;;3.38;2.00;;;21.70;96.30;;;;;;4918701;29;20032;-79
2022/05/12 16:32:59;;;;;;;6.63;3.85;;;21.40;97.30;;;;;;4918262;29;20499;-80
2022/05/12 16:35:27;;;;;;;6.20;3.65;;;20.30;99.90;;;;;;4918043;29;20107;-79
2022/05/12 16:37:53;;;;;;;5.55;3.75;;;19.40;99.90;;;;;;4916729;29;20028;-80
2022/05/12 16:40:19;;;;;;;5.25;4.20;;;18.80;99.90;;;;;;4916617;29;20040;-79
2022/05/12 16:42:44;;;;;;;8.38;4.03;;;18.20;99.90;;;;;;4918879;29;20079;-79
2022/05/12 16:45:11;;;;;;;5.07;4.13;;;17.60;99.90;;;;;;4917221;29;20039;-80
2022/05/12 16:47:36;;;;;;;6.55;3.75;;;17.30;99.90;;;;;;4917961;29;20044;-78
2022/05/12 16:50:04;;;;;;;9.13;3.35;;;17.20;99.90;;;;;;4917201;29;20417;-80
2022/05/12 16:52:30;;;;;;;6.25;3.75;;;17.20;99.90;;;;;;4917044;29;20032;-80
2022/05/12 16:54:55;;;;;;;4.63;3.50;;;17.30;99.90;;;;;;4919117;29;20030;-79
2022/05/12 16:57:24;;;;;;;4.10;3.70;;;17.30;99.90;;;;;;4917878;29;20120;-80
2022/05/12 16:59:51;;;;;;;5.07;3.97;;;17.40;99.90;;;;;;4916750;29;20111;-79
2022/05/12 17:02:18;;;;;;;10.27;5.10;;;17.60;99.90;;;;;;4917438;29;20032;-79
2022/05/12 17:04:44;;;;;;;5.82;5.18;;;17.60;99.90;;;;;;4917161;29;20024;-79
2022/05/12 17:07:10;;;;;;;5.22;4.15;;;17.70;99.90;;;;;;4916467;29;20020;-79
2022/05/12 17:09:37;;;;;;;7.28;5.60;;;17.90;99.90;;;;;;4916914;29;20036;-80
2022/05/12 17:12:04;;;;;;;16.83;15.02;;;17.90;99.90;;;;;;4920649;29;20091;-79
2022/05/12 17:14:32;;;;;;;6.55;5.95;;;18.00;99.90;;;;;;4923864;29;20048;-79
2022/05/12 17:16:59;;;;;;;16.75;15.00;;;18.00;99.90;;;;;;4923160;29;20035;-79
2022/05/12 17:19:25;;;;;;;6.68;5.07;;;18.10;99.90;;;;;;4922103;29;20036;-79
2022/05/12 17:21:50;;;;;;;8.90;7.03;;;18.10;99.90;;;;;;4917716;29;20075;-80
2022/05/12 17:24:17;;;;;;;6.03;5.40;;;18.20;99.90;;;;;;4915569;29;20036;-78
2022/05/12 17:26:42;;;;;;;6.72;5.97;;;18.30;99.90;;;;;;4915751;29;20084;-79
2022/05/12 17:29:08;;;;;;;5.90;5.05;;;18.30;99.90;;;;;;4916987;29;20485;-78
2022/05/12 17:31:34;;;;;;;5.72;4.72;;;18.30;99.90;;;;;;4916817;29;20039;-80
2022/05/12 17:34:00;;;;;;;5.35;4.60;;;18.30;99.90;;;;;;4917358;29;20036;-80
2022/05/12 17:36:26;;;;;;;6.35;4.85;;;18.20;99.90;;;;;;4915695;29;20473;-79
2022/05/12 17:38:52;;;;;;;5.97;5.30;;;18.20;99.90;;;;;;4917015;29;20123;-79
2022/05/12 17:41:17;;;;;;;6.35;5.22;;;18.20;99.90;;;;;;4918237;29;20481;-79
2022/05/12 17:43:43;;;;;;;6.82;4.85;;;18.30;99.90;;;;;;4916512;29;20063;-79
2022/05/12 17:46:11;;;;;;;6.85;5.47;;;18.30;99.90;;;;;;4914980;29;20032;-81
2022/05/12 17:48:38;;;;;;;7.38;5.55;;;18.30;99.90;;;;;;4916651;29;20357;-78
2022/05/12 17:51:06;;;;;;;8.13;4.88;;;18.30;99.90;;;;;;4916421;29;20071;-79
2022/05/12 17:53:32;;;;;;;6.25;5.65;;;18.30;99.90;;;;;;4918671;29;20107;-80
2022/05/12 17:55:57;;;;;;;7.60;5.10;;;18.30;99.90;;;;;;4917733;29;20103;-79
2022/05/12 17:58:25;;;;;;;8.85;4.78;;;18.20;99.90;;;;;;4916998;29;20028;-79
2022/05/12 18:00:51;;;;;;;6.50;5.55;;;18.20;99.90;;;;;;4917560;29;20128;-81
2022/05/12 18:03:17;;;;;;;10.27;5.63;;;18.20;99.90;;;;;;4916657;29;20036;-79
2022/05/12 18:05:45;;;;;;;5.82;4.97;;;18.20;99.90;;;;;;4916303;29;20028;-80
2022/05/12 18:08:13;;;;;;;6.47;5.28;;;18.20;99.90;;;;;;4918700;29;20028;-80
2022/05/12 18:10:42;;;;;;;9.38;5.80;;;18.20;99.90;;;;;;4917840;29;20020;-80
2022/05/12 18:13:09;;;;;;;5.70;5.20;;;18.10;99.90;;;;;;4919515;29;20111;-79
2022/05/12 18:15:37;;;;;;;6.18;5.47;;;18.10;99.90;;;;;;4924258;29;20024;-79
2022/05/12 18:18:04;;;;;;;14.45;6.38;;;18.10;99.90;;;;;;4919460;29;20034;-80
2022/05/12 18:20:29;;;;;;;8.13;5.50;;;18.20;99.90;;;;;;4916448;29;20520;-81
2022/05/12 18:22:55;;;;;;;6.93;5.40;;;18.30;99.90;;;;;;4915130;29;20037;-80
2022/05/12 18:25:21;;;;;;;8.85;5.75;;;18.30;99.90;;;;;;4915386;29;20488;-79
2022/05/12 18:27:47;;;;;;;6.88;6.20;;;18.30;99.90;;;;;;4917049;29;20024;-81
2022/05/12 18:30:15;;;;;;;5.03;4.63;;;18.30;99.90;;;;;;4916279;29;20120;-80
2022/05/12 18:32:41;;;;;;;7.38;5.68;;;18.30;99.90;;;;;;4916352;29;20032;-79
2022/05/12 18:35:08;;;;;;;6.50;5.45;;;18.30;99.90;;;;;;4914985;29;20028;-79
2022/05/12 18:37:36;;;;;;;6.07;5.50;;;18.30;99.90;;;;;;4918012;29;20080;-78
2022/05/12 18:40:03;;;;;;;6.80;5.10;;;18.30;99.90;;;;;;4920149;29;20142;-80
2022/05/12 18:42:29;;;;;;;6.90;5.53;;;18.30;99.90;;;;;;4919317;29;20473;-79
2022/05/12 18:44:54;;;;;;;11.18;6.32;;;18.20;99.90;;;;;;4925085;29;20083;-79
2022/05/12 18:47:21;;;;;;;7.57;5.45;;;18.10;99.90;;;;;;4920582;29;20078;-80
2022/05/12 18:49:46;;;;;;;6.72;6.13;;;18.10;99.90;;;;;;4919052;29;20028;-79
2022/05/12 18:52:14;;;;;;;10.98;6.85;;;18.00;99.90;;;;;;4920794;29;20157;-80
2022/05/12 18:54:42;;;;;;;6.82;5.30;;;18.10;99.90;;;;;;4922119;29;20083;-80
2022/05/12 18:57:12;;;;;;;7.93;7.13;;;18.10;99.90;;;;;;4919051;29;20036;-82
2022/05/12 18:59:38;;;;;;;8.32;5.50;;;18.00;99.90;;;;;;4919984;29;20032;-79
2022/05/12 19:02:05;;;;;;;6.50;5.88;;;18.00;99.90;;;;;;4919128;29;20400;-79
2022/05/12 19:04:30;;;;;;;7.43;6.65;;;18.00;99.90;;;;;;4919476;29;20084;-80
2022/05/12 19:06:58;;;;;;;6.60;5.95;;;18.10;99.90;;;;;;4919664;29;20430;-78
2022/05/12 19:09:24;;;;;;;6.47;5.88;;;18.20;99.90;;;;;;4918719;29;20040;-78
2022/05/12 19:11:50;;;;;;;9.20;5.82;;;18.30;99.90;;;;;;4918896;29;20024;-79
2022/05/12 19:14:16;;;;;;;7.93;5.85;;;18.50;99.90;;;;;;4919635;29;20035;-79
2022/05/12 19:16:42;;;;;;;6.63;6.03;;;18.60;99.90;;;;;;4919005;29;20025;-80
2022/05/12 19:19:08;;;;;;;7.03;6.32;;;18.50;99.90;;;;;;4919243;29;20051;-79
2022/05/12 19:21:33;;;;;;;6.43;5.80;;;18.50;99.90;;;;;;4919653;29;20400;-79
2022/05/12 19:24:00;;;;;;;6.43;5.70;;;18.50;99.90;;;;;;4924354;29;20032;-80
2022/05/12 19:26:25;;;;;;;7.10;6.38;;;18.30;99.90;;;;;;4929517;29;20024;-80
2022/05/12 19:28:51;;;;;;;7.47;6.38;;;18.20;99.90;;;;;;4918546;29;20492;-80
2022/05/12 19:31:17;;;;;;;7.85;6.60;;;18.10;99.90;;;;;;4919696;29;20031;-80